Time;durP1;ratioP1;P1;durP2;ratioP2;P2;SDS_P1;SDS_P2;PMS_P1;PMS_P2;Temp;Humidity;BMP_temperature;BMP_pressure;BME280_temperature;BME280_humidity;BME280_pressure;Samples;Min_cycle;Max_cycle;Signal;HPM_P1;HPM_P2
2021/01/26 00:01:52;;;;;;;41.43;31.03;;;0.60;99.90;;;;;;5009666;28;20504;-49
2021/01/26 00:04:19;;;;;;;43.67;28.83;;;0.60;99.90;;;;;;5009651;28;20718;-49
2021/01/26 00:06:46;;;;;;;44.90;30.50;;;0.60;99.90;;;;;;4995310;28;20914;-50
2021/01/26 00:09:14;;;;;;;40.27;29.00;;;0.60;99.90;;;;;;5008901;28;20558;-48
2021/01/26 00:11:42;;;;;;;41.57;30.07;;;0.60;99.90;;;;;;5010459;28;20476;-49
2021/01/26 00:14:09;;;;;;;38.60;28.73;;;0.70;99.90;;;;;;5010941;28;20464;-48
2021/01/26 00:16:36;;;;;;;43.73;31.23;;;0.70;99.90;;;;;;5000874;28;20961;-49
2021/01/26 00:19:04;;;;;;;48.00;32.03;;;0.70;99.90;;;;;;5010075;28;20476;-49
2021/01/26 00:21:32;;;;;;;39.53;30.57;;;1.20;99.90;;;;;;5016042;28;20978;-48
2021/01/26 00:23:59;;;;;;;44.90;30.23;;;0.90;99.90;;;;;;5018581;28;20508;-49
2021/01/26 00:26:27;;;;;;;46.50;32.03;;;1.00;99.90;;;;;;5005654;28;20481;-49
2021/01/26 00:28:54;;;;;;;44.27;30.93;;;0.90;99.90;;;;;;5008664;28;20577;-49
2021/01/26 00:31:22;;;;;;;39.70;28.90;;;0.80;99.90;;;;;;5010577;28;20508;-49
2021/01/26 00:33:49;;;;;;;45.80;30.03;;;0.80;99.90;;;;;;5010083;28;20477;-49
2021/01/26 00:36:17;;;;;;;51.87;35.30;;;1.50;99.90;;;;;;5006639;28;20469;-48
2021/01/26 00:38:46;;;;;;;48.13;34.57;;;1.10;99.90;;;;;;5009449;28;20481;-49
2021/01/26 00:41:14;;;;;;;46.77;33.83;;;1.00;99.90;;;;;;5010384;28;20558;-49
2021/01/26 00:43:42;;;;;;;49.10;32.63;;;0.90;99.90;;;;;;5005760;28;20485;-48
2021/01/26 00:46:09;;;;;;;40.90;30.50;;;0.80;99.90;;;;;;4990453;28;20531;-48
2021/01/26 00:48:37;;;;;;;47.77;33.43;;;0.80;99.90;;;;;;4971107;28;20477;-50
2021/01/26 00:51:05;;;;;;;41.97;30.10;;;1.20;99.90;;;;;;4970447;28;20753;-49
2021/01/26 00:53:32;;;;;;;46.70;32.07;;;1.00;99.90;;;;;;4970665;28;21000;-49
2021/01/26 00:56:06;;;;;;;42.27;28.90;;;1.00;99.90;;;;;;4985350;28;20478;-49
2021/01/26 00:58:34;;;;;;;57.63;35.97;;;1.00;99.90;;;;;;4985593;28;20479;-49
2021/01/26 01:01:06;;;;;;;54.63;37.67;;;1.80;99.90;;;;;;4986806;28;20531;-50
2021/01/26 01:03:35;;;;;;;58.27;39.90;;;1.40;99.90;;;;;;4980990;28;20521;-49
2021/01/26 01:06:03;;;;;;;52.10;36.87;;;1.20;99.90;;;;;;4983306;28;20534;-49
2021/01/26 01:08:31;;;;;;;49.87;36.03;;;1.00;99.90;;;;;;4989145;28;20534;-49
2021/01/26 01:10:58;;;;;;;45.43;33.60;;;1.00;99.90;;;;;;4989759;28;20473;-50
2021/01/26 01:13:27;;;;;;;46.37;33.00;;;0.90;99.90;;;;;;5005106;28;20538;-49
2021/01/26 01:15:55;;;;;;;43.70;30.50;;;0.90;99.90;;;;;;5003858;28;20509;-49
2021/01/26 01:18:23;;;;;;;44.37;31.60;;;1.00;99.90;;;;;;5007254;28;20488;-49
2021/01/26 01:20:50;;;;;;;45.87;30.43;;;0.90;99.90;;;;;;5009017;28;20482;-49
2021/01/26 01:23:18;;;;;;;42.40;30.60;;;0.90;99.90;;;;;;5009040;28;20552;-49
2021/01/26 01:25:45;;;;;;;43.90;30.87;;;1.00;99.90;;;;;;5008579;28;20500;-49
2021/01/26 01:28:12;;;;;;;46.67;31.00;;;1.00;99.90;;;;;;5009267;28;20491;-48
2021/01/26 01:30:40;;;;;;;54.60;37.33;;;1.30;99.90;;;;;;5009039;28;20517;-49
2021/01/26 01:33:08;;;;;;;47.83;34.43;;;1.80;99.90;;;;;;5009071;28;20475;-49
2021/01/26 01:35:36;;;;;;;43.47;32.43;;;1.40;99.90;;;;;;4991010;28;20481;-49
2021/01/26 01:38:03;;;;;;;45.03;31.60;;;1.20;99.90;;;;;;5008098;28;20476;-49
2021/01/26 01:40:34;;;;;;;58.20;37.60;;;1.90;99.90;;;;;;5009018;28;20501;-48
2021/01/26 01:43:01;;;;;;;55.07;35.47;;;2.00;99.90;;;;;;5008907;28;22808;-49
2021/01/26 01:45:29;;;;;;;58.33;36.17;;;1.90;99.90;;;;;;5001708;28;20901;-49
2021/01/26 01:48:02;;;;;;;64.97;43.10;;;1.80;99.90;;;;;;5008745;28;20480;-49
2021/01/26 01:50:34;;;;;;;62.90;40.47;;;1.80;99.90;;;;;;5008575;28;20480;-49
2021/01/26 01:53:11;;;;;;;53.90;37.00;;;1.50;99.90;;;;;;5008747;28;20468;-49
2021/01/26 01:55:43;;;;;;;49.27;34.07;;;1.30;99.90;;;;;;4989722;28;20504;-49
2021/01/26 01:58:16;;;;;;;45.57;33.90;;;1.20;99.90;;;;;;4989314;28;21208;-49
2021/01/26 02:00:48;;;;;;;47.97;33.90;;;1.20;99.90;;;;;;4992673;28;20494;-49
2021/01/26 02:03:23;;;;;;;49.13;33.80;;;1.10;99.90;;;;;;5015785;28;20467;-49
2021/01/26 02:05:53;;;;;;;46.93;33.70;;;1.10;99.90;;;;;;5004378;28;20567;-48
2021/01/26 02:08:32;;;;;;;42.57;31.13;;;1.10;99.90;;;;;;5008153;28;20505;-50
2021/01/26 02:10:59;;;;;;;44.87;32.93;;;1.10;99.90;;;;;;5007027;28;20480;-49
2021/01/26 02:13:27;;;;;;;44.47;33.53;;;1.00;99.90;;;;;;5008077;28;21069;-49
2021/01/26 02:16:00;;;;;;;42.90;32.07;;;1.00;99.90;;;;;;5000449;28;20557;-49
2021/01/26 02:18:59;;;;;;;42.87;31.97;;;1.00;99.90;;;;;;5007089;28;20478;-48
2021/01/26 02:22:11;;;;;;;43.50;30.40;;;1.10;99.90;;;;;;5008066;28;20500;-49
2021/01/26 02:25:15;;;;;;;42.43;28.97;;;1.10;99.90;;;;;;4988218;28;20500;-49
2021/01/26 02:28:25;;;;;;;49.63;33.80;;;1.20;99.90;;;;;;4988221;28;20553;-48
2021/01/26 02:31:20;;;;;;;43.77;30.57;;;1.90;99.90;;;;;;4988279;28;20504;-49
2021/01/26 02:34:46;;;;;;;54.27;37.47;;;1.60;99.90;;;;;;5001693;28;20543;-49
2021/01/26 02:38:18;;;;;;;48.70;34.50;;;1.90;99.90;;;;;;4987981;28;20477;-49
2021/01/26 02:40:52;;;;;;;45.23;30.90;;;1.70;99.90;;;;;;4938411;28;20471;-48
2021/01/26 02:43:39;;;;;;;53.77;37.67;;;1.80;99.90;;;;;;4988022;28;20473;-49
2021/01/26 02:46:16;;;;;;;59.87;40.30;;;1.70;99.90;;;;;;4990187;28;20499;-49
2021/01/26 02:49:08;;;;;;;53.30;35.13;;;2.00;99.90;;;;;;5007945;28;20479;-48
2021/01/26 02:51:50;;;;;;;59.63;41.37;;;2.00;99.90;;;;;;4989650;28;20508;-49
2021/01/26 02:54:27;;;;;;;51.77;35.97;;;1.80;99.90;;;;;;5002544;28;20492;-49
2021/01/26 02:57:02;;;;;;;47.57;34.30;;;1.60;99.90;;;;;;5008282;28;20567;-50
2021/01/26 02:59:37;;;;;;;45.43;34.80;;;1.40;99.90;;;;;;5007246;28;20512;-49
2021/01/26 03:02:12;;;;;;;44.03;32.00;;;1.40;99.90;;;;;;5010338;28;20601;-49
2021/01/26 03:04:51;;;;;;;48.90;34.53;;;1.30;99.90;;;;;;5013590;28;20554;-49
2021/01/26 03:07:21;;;;;;;53.03;37.53;;;1.80;99.90;;;;;;5025166;28;20560;-49
2021/01/26 03:09:57;;;;;;;49.97;34.87;;;2.30;99.90;;;;;;5021139;28;20539;-49
2021/01/26 03:12:32;;;;;;;57.23;38.50;;;2.20;99.90;;;;;;5007057;28;20481;-49
2021/01/26 03:15:04;;;;;;;69.83;42.33;;;2.40;99.90;;;;;;5006065;28;20569;-49
2021/01/26 03:17:37;;;;;;;77.07;44.20;;;2.70;99.90;;;;;;5015953;28;20471;-50
2021/01/26 03:20:14;;;;;;;80.77;46.73;;;2.90;99.90;;;;;;5007052;28;20481;-49
2021/01/26 03:22:47;;;;;;;89.30;47.33;;;2.90;99.90;;;;;;5021149;28;20564;-49
2021/01/26 03:25:17;;;;;;;85.00;48.77;;;3.00;99.90;;;;;;4987164;28;20553;-48
2021/01/26 03:27:48;;;;;;;89.23;49.33;;;3.00;99.90;;;;;;4988081;28;20502;-49
2021/01/26 03:30:23;;;;;;;92.87;51.43;;;3.00;99.90;;;;;;4987884;28;20514;-49
2021/01/26 03:32:57;;;;;;;94.40;55.37;;;2.90;99.90;;;;;;5002476;28;20901;-48
2021/01/26 03:35:25;;;;;;;75.53;46.83;;;2.40;99.90;;;;;;5005798;28;20484;-49
2021/01/26 03:37:59;;;;;;;69.67;42.50;;;1.90;99.90;;;;;;5007197;28;20472;-50
2021/01/26 03:40:56;;;;;;;54.63;39.47;;;1.60;99.90;;;;;;5007309;28;20472;-49
2021/01/26 03:43:30;;;;;;;55.30;38.20;;;1.50;99.90;;;;;;4999112;28;20480;-49
2021/01/26 03:46:20;;;;;;;53.97;33.13;;;1.50;99.90;;;;;;4987563;28;20488;-49
2021/01/26 03:49:08;;;;;;;70.30;43.43;;;1.80;99.90;;;;;;4987973;28;20466;-49
2021/01/26 03:52:24;;;;;;;65.40;42.20;;;2.20;99.90;;;;;;4987997;28;20516;-50
2021/01/26 03:55:02;;;;;;;58.27;38.80;;;2.50;99.90;;;;;;5000739;28;21039;-49
2021/01/26 03:57:46;;;;;;;52.23;35.93;;;1.90;99.90;;;;;;5006918;28;20469;-49
2021/01/26 04:00:25;;;;;;;42.53;29.23;;;1.70;99.90;;;;;;5009503;28;20553;-49
2021/01/26 04:03:21;;;;;;;51.83;36.27;;;1.90;99.90;;;;;;5015874;28;21023;-49
2021/01/26 04:05:55;;;;;;;49.20;36.87;;;1.70;99.90;;;;;;5010744;28;20597;-49
2021/01/26 04:08:33;;;;;;;47.73;33.50;;;1.60;99.90;;;;;;5010728;28;20523;-49
2021/01/26 04:11:09;;;;;;;59.73;38.03;;;2.20;99.90;;;;;;5019481;28;20560;-49
2021/01/26 04:13:45;;;;;;;71.80;42.73;;;2.50;99.90;;;;;;5005849;28;20505;-49
2021/01/26 04:16:16;;;;;;;86.50;47.63;;;2.70;99.90;;;;;;5010094;28;20558;-49
2021/01/26 04:18:48;;;;;;;87.30;48.43;;;2.80;99.90;;;;;;5010732;28;20500;-49
2021/01/26 04:21:17;;;;;;;88.87;50.40;;;2.90;99.90;;;;;;5007505;28;20602;-49
2021/01/26 04:23:45;;;;;;;90.70;49.93;;;2.90;99.90;;;;;;4990599;28;20485;-49
2021/01/26 04:26:18;;;;;;;84.47;49.03;;;3.00;99.90;;;;;;5002897;28;20563;-49
2021/01/26 04:28:48;;;;;;;81.23;48.90;;;2.70;99.90;;;;;;5010531;28;20473;-49
2021/01/26 04:31:21;;;;;;;46.80;39.17;;;2.20;99.90;;;;;;5009490;28;20470;-49
2021/01/26 04:33:49;;;;;;;45.80;34.73;;;1.80;99.90;;;;;;5010355;28;20234;-49
2021/01/26 04:36:20;;;;;;;40.83;32.30;;;1.60;99.90;;;;;;5009972;28;20502;-49
2021/01/26 04:38:48;;;;;;;41.90;32.03;;;1.50;99.90;;;;;;5010371;28;20566;-50
2021/01/26 04:41:30;;;;;;;39.27;30.40;;;1.50;99.90;;;;;;5009057;28;20879;-48
2021/01/26 04:44:45;;;;;;;39.13;29.93;;;1.50;99.90;;;;;;5010258;28;20557;-49
2021/01/26 04:47:19;;;;;;;40.10;30.37;;;1.50;99.90;;;;;;4930238;29;20519;-49
2021/01/26 04:50:00;;;;;;;41.57;30.23;;;1.50;99.90;;;;;;5016326;28;20998;-49
2021/01/26 04:52:50;;;;;;;41.83;29.73;;;1.50;99.90;;;;;;5006136;28;20490;-49
2021/01/26 04:55:30;;;;;;;43.33;31.03;;;1.50;99.90;;;;;;5016288;28;20472;-49
2021/01/26 04:58:16;;;;;;;41.03;29.63;;;1.50;99.90;;;;;;5015246;28;21070;-49
2021/01/26 05:00:55;;;;;;;46.37;30.53;;;1.40;99.90;;;;;;5005539;28;20538;-50
2021/01/26 05:03:45;;;;;;;43.07;30.53;;;1.40;99.90;;;;;;5007907;28;20570;-49
2021/01/26 05:06:18;;;;;;;42.83;30.57;;;1.40;99.90;;;;;;5009786;28;20499;-49
2021/01/26 05:08:51;;;;;;;39.87;30.27;;;1.40;99.90;;;;;;5006495;28;20570;-49
2021/01/26 05:11:21;;;;;;;42.40;31.10;;;1.40;99.90;;;;;;5010410;28;20539;-49
2021/01/26 05:13:51;;;;;;;39.40;30.73;;;1.50;99.90;;;;;;5009450;28;20482;-49
2021/01/26 05:16:29;;;;;;;39.37;30.43;;;1.40;99.90;;;;;;5009011;28;20487;-49
2021/01/26 05:19:04;;;;;;;41.90;31.50;;;1.40;99.90;;;;;;5008863;28;21001;-49
2021/01/26 05:21:40;;;;;;;44.83;32.53;;;1.40;99.90;;;;;;4993315;28;20509;-48
2021/01/26 05:24:20;;;;;;;40.63;31.13;;;1.40;99.90;;;;;;4989244;28;20918;-49
2021/01/26 05:26:48;;;;;;;41.00;30.50;;;1.50;99.90;;;;;;5001157;28;20543;-49
2021/01/26 05:29:16;;;;;;;49.50;32.20;;;1.50;99.90;;;;;;5009231;28;20530;-49
2021/01/26 05:31:49;;;;;;;66.23;41.50;;;2.10;99.90;;;;;;5008320;28;20501;-49
2021/01/26 05:34:19;;;;;;;76.53;44.10;;;2.50;99.90;;;;;;5008344;28;20534;-49
2021/01/26 05:36:47;;;;;;;82.93;46.23;;;2.70;99.90;;;;;;5006426;28;20480;-49
2021/01/26 05:39:23;;;;;;;94.97;51.23;;;2.80;99.90;;;;;;5005942;28;20571;-49
2021/01/26 05:41:51;;;;;;;109.37;55.40;;;3.00;99.90;;;;;;5008222;28;20492;-49
2021/01/26 05:44:19;;;;;;;102.13;53.63;;;3.10;99.90;;;;;;5008507;28;20472;-50
2021/01/26 05:46:48;;;;;;;112.90;55.90;;;2.80;99.90;;;;;;5008551;28;20492;-49
2021/01/26 05:49:36;;;;;;;119.13;56.93;;;3.00;99.90;;;;;;5008083;28;20478;-49
2021/01/26 05:52:06;;;;;;;119.90;64.97;;;3.20;99.90;;;;;;5006120;28;20472;-49
2021/01/26 05:54:44;;;;;;;100.10;57.23;;;2.60;99.90;;;;;;5023300;28;20558;-49
2021/01/26 05:57:13;;;;;;;95.57;54.10;;;2.00;99.90;;;;;;5005640;28;20468;-49
2021/01/26 05:59:40;;;;;;;81.27;50.37;;;1.80;99.90;;;;;;5010451;28;21022;-49
2021/01/26 06:02:12;;;;;;;82.83;46.77;;;1.70;99.90;;;;;;5007124;28;20559;-50
2021/01/26 06:04:42;;;;;;;95.00;54.30;;;2.10;99.90;;;;;;5004299;28;20524;-50
2021/01/26 06:07:20;;;;;;;79.13;44.50;;;2.00;99.90;;;;;;5007602;28;20468;-49
2021/01/26 06:09:49;;;;;;;87.70;50.73;;;1.90;99.90;;;;;;5006620;28;20834;-49
2021/01/26 06:12:23;;;;;;;77.07;48.07;;;1.70;99.90;;;;;;5006347;28;20848;-50
2021/01/26 06:15:06;;;;;;;63.63;41.50;;;1.50;99.90;;;;;;5006941;28;20480;-49
2021/01/26 06:17:35;;;;;;;82.00;43.53;;;1.50;99.90;;;;;;5008820;28;20983;-48
2021/01/26 06:20:16;;;;;;;96.50;50.07;;;2.40;99.90;;;;;;5005768;28;20485;-49
2021/01/26 06:22:43;;;;;;;110.37;52.40;;;2.60;99.90;;;;;;4988994;28;20477;-49
2021/01/26 06:25:20;;;;;;;114.77;54.60;;;2.70;99.90;;;;;;5001494;28;20579;-49
2021/01/26 06:27:53;;;;;;;117.57;56.53;;;2.90;99.90;;;;;;4992744;28;20469;-49
2021/01/26 06:30:52;;;;;;;134.03;62.30;;;2.90;99.90;;;;;;4990360;28;20486;-49
2021/01/26 06:33:59;;;;;;;140.53;61.63;;;2.90;99.90;;;;;;5002896;28;20565;-49
2021/01/26 06:37:17;;;;;;;144.90;65.67;;;2.90;99.90;;;;;;5014002;28;20531;-49
2021/01/26 06:40:19;;;;;;;142.17;63.43;;;2.90;99.90;;;;;;4971759;28;20898;-49
2021/01/26 06:42:57;;;;;;;151.60;66.03;;;2.70;99.90;;;;;;4997458;28;21060;-49
2021/01/26 06:45:32;;;;;;;154.60;65.80;;;2.60;99.90;;;;;;5001674;28;20988;-49
2021/01/26 06:48:27;;;;;;;145.60;67.47;;;2.50;99.90;;;;;;5001954;28;21011;-49
2021/01/26 06:51:39;;;;;;;160.17;68.73;;;2.40;99.90;;;;;;5004355;28;21022;-49
2021/01/26 06:54:25;;;;;;;144.97;65.57;;;2.30;99.90;;;;;;4953240;28;20499;-49
2021/01/26 06:57:17;;;;;;;155.97;68.97;;;2.30;99.90;;;;;;5012973;28;20505;-48
2021/01/26 07:00:39;;;;;;;145.27;63.43;;;2.30;99.90;;;;;;5004235;28;20550;-49
2021/01/26 07:03:45;;;;;;;159.47;72.53;;;2.20;99.90;;;;;;4974995;28;20544;-49
2021/01/26 07:06:37;;;;;;;145.43;67.47;;;1.80;99.90;;;;;;5016573;28;20848;-49
2021/01/26 07:09:31;;;;;;;129.73;63.93;;;1.60;99.90;;;;;;5019725;28;20552;-48
2021/01/26 07:12:35;;;;;;;131.83;60.97;;;1.50;99.90;;;;;;5004706;28;20567;-49
2021/01/26 07:15:28;;;;;;;135.60;63.90;;;1.50;99.90;;;;;;5004183;28;20477;-48
2021/01/26 07:18:30;;;;;;;133.77;64.27;;;1.30;99.90;;;;;;5004652;28;21032;-50
2021/01/26 07:21:12;;;;;;;122.77;61.80;;;1.30;99.90;;;;;;5003955;28;20559;-49
2021/01/26 07:24:00;;;;;;;104.43;51.67;;;0.80;99.90;;;;;;4985268;28;20478;-49
2021/01/26 07:27:17;;;;;;;102.53;53.33;;;0.70;99.90;;;;;;4992307;28;20482;-49
2021/01/26 07:30:10;;;;;;;99.47;49.00;;;0.50;99.90;;;;;;5008520;28;20881;-49
2021/01/26 07:32:45;;;;;;;105.20;52.70;;;0.70;99.90;;;;;;4994711;28;20496;-49
2021/01/26 07:35:20;;;;;;;106.77;54.17;;;0.70;99.90;;;;;;5003843;28;20543;-49
2021/01/26 07:37:57;;;;;;;101.33;51.07;;;0.60;99.90;;;;;;5007561;28;21034;-49
2021/01/26 07:40:32;;;;;;;107.13;53.03;;;0.60;99.90;;;;;;5008213;28;20591;-48
2021/01/26 07:43:10;;;;;;;98.67;50.73;;;0.50;99.90;;;;;;5008494;28;20475;-49
2021/01/26 07:45:51;;;;;;;98.10;50.10;;;0.60;99.90;;;;;;5000494;28;20475;-50
2021/01/26 07:48:30;;;;;;;108.80;55.13;;;0.80;99.90;;;;;;5014652;28;20510;-49
2021/01/26 07:51:02;;;;;;;99.27;55.00;;;0.70;99.90;;;;;;5017152;28;20470;-49
2021/01/26 07:53:43;;;;;;;86.27;50.03;;;0.70;99.90;;;;;;5018125;28;20541;-49
2021/01/26 07:56:20;;;;;;;97.00;54.47;;;0.80;99.90;;;;;;5018308;28;20496;-49
2021/01/26 07:58:49;;;;;;;85.20;48.57;;;0.70;99.90;;;;;;5007446;28;20575;-50
2021/01/26 08:01:25;;;;;;;86.03;48.17;;;0.70;99.90;;;;;;5012657;28;20529;-49
2021/01/26 08:03:53;;;;;;;90.47;50.43;;;0.70;99.90;;;;;;5016749;28;20486;-49
2021/01/26 08:07:02;;;;;;;87.93;49.90;;;0.70;99.90;;;;;;5019634;28;20550;-48
2021/01/26 08:09:40;;;;;;;98.40;53.00;;;1.00;99.90;;;;;;4987967;28;20500;-49
2021/01/26 08:12:14;;;;;;;95.57;50.00;;;1.00;99.90;;;;;;4988444;28;20493;-49
2021/01/26 08:14:48;;;;;;;97.47;53.27;;;0.90;99.90;;;;;;4988027;28;20561;-49
2021/01/26 08:17:26;;;;;;;90.33;51.20;;;0.80;99.90;;;;;;4987699;28;20543;-49
2021/01/26 08:20:04;;;;;;;97.73;51.67;;;0.80;99.90;;;;;;4997024;28;20564;-49
2021/01/26 08:22:34;;;;;;;107.73;56.63;;;0.80;99.90;;;;;;5007637;28;20520;-48
2021/01/26 08:25:07;;;;;;;92.47;51.70;;;1.00;99.90;;;;;;5007399;28;20584;-49
2021/01/26 08:27:59;;;;;;;92.90;51.70;;;0.90;99.90;;;;;;5007086;28;20496;-50
2021/01/26 08:31:04;;;;;;;89.53;50.70;;;1.00;99.90;;;;;;5006630;28;20986;-49
2021/01/26 08:33:34;;;;;;;93.90;50.93;;;1.10;99.90;;;;;;5006805;28;20558;-49
2021/01/26 08:36:33;;;;;;;97.27;56.13;;;1.10;99.90;;;;;;5007276;28;20585;-48
2021/01/26 08:39:06;;;;;;;93.80;52.90;;;1.00;99.90;;;;;;5007371;28;20883;-48
2021/01/26 08:41:51;;;;;;;82.73;51.20;;;0.90;99.90;;;;;;5007364;28;21033;-48
2021/01/26 08:44:51;;;;;;;74.03;47.70;;;0.90;99.90;;;;;;5006595;28;20479;-49
2021/01/26 08:47:45;;;;;;;66.33;43.73;;;0.90;99.90;;;;;;4998624;28;20482;-49
2021/01/26 08:50:27;;;;;;;68.63;44.27;;;0.90;99.90;;;;;;5015247;28;20475;-48
2021/01/26 08:53:16;;;;;;;63.60;42.57;;;0.90;99.90;;;;;;5021640;28;20979;-49
2021/01/26 08:55:46;;;;;;;63.83;42.23;;;1.00;99.90;;;;;;5022978;28;20482;-49
2021/01/26 08:58:40;;;;;;;57.87;40.90;;;1.10;99.90;;;;;;5010321;28;21182;-49
2021/01/26 09:01:11;;;;;;;59.37;42.03;;;1.10;99.90;;;;;;5005270;28;20472;-49
2021/01/26 09:03:42;;;;;;;58.37;40.20;;;1.10;99.90;;;;;;5018438;28;20479;-49
2021/01/26 09:06:13;;;;;;;59.27;41.10;;;1.20;99.90;;;;;;5007823;28;20476;-49
2021/01/26 09:08:51;;;;;;;52.63;38.03;;;1.30;99.90;;;;;;5006902;28;20875;-49
2021/01/26 09:11:26;;;;;;;54.87;40.07;;;1.40;99.90;;;;;;5006078;28;20488;-49
2021/01/26 09:14:22;;;;;;;59.27;39.90;;;1.40;99.90;;;;;;5006586;28;20490;-49
2021/01/26 09:16:56;;;;;;;54.97;38.40;;;1.50;99.90;;;;;;5006406;28;20475;-49
2021/01/26 09:19:30;;;;;;;51.37;37.47;;;1.40;99.90;;;;;;5005871;28;20957;-49
2021/01/26 09:22:11;;;;;;;50.17;34.87;;;1.50;99.90;;;;;;5006593;28;20845;-50
2021/01/26 09:24:42;;;;;;;60.60;39.47;;;1.60;99.90;;;;;;4997933;28;20508;-49
2021/01/26 09:27:25;;;;;;;60.07;41.10;;;1.60;99.90;;;;;;5006717;28;20511;-49
2021/01/26 09:30:13;;;;;;;62.17;44.00;;;1.50;99.90;;;;;;5005661;28;20483;-49
2021/01/26 09:32:42;;;;;;;56.83;39.53;;;1.60;99.90;;;;;;5026442;28;21038;-49
2021/01/26 09:35:22;;;;;;;62.40;42.67;;;1.60;99.90;;;;;;5025937;28;20563;-49
2021/01/26 09:38:04;;;;;;;61.80;42.60;;;1.60;99.90;;;;;;5007652;28;20575;-50
2021/01/26 09:40:33;;;;;;;62.03;40.53;;;1.60;99.90;;;;;;5005226;28;20578;-49
2021/01/26 09:43:20;;;;;;;67.50;42.97;;;1.80;99.90;;;;;;5012536;28;20479;-49
2021/01/26 09:45:56;;;;;;;63.50;43.90;;;1.80;99.90;;;;;;4998407;28;20528;-49
2021/01/26 09:48:39;;;;;;;60.40;42.40;;;1.70;99.90;;;;;;5007823;28;20477;-49
2021/01/26 09:51:19;;;;;;;60.30;41.07;;;1.70;99.90;;;;;;5008860;28;20996;-51
2021/01/26 09:53:49;;;;;;;58.23;40.40;;;1.60;99.90;;;;;;5016634;28;21129;-50
2021/01/26 09:56:20;;;;;;;55.00;39.07;;;1.60;99.90;;;;;;5008129;28;20496;-49
2021/01/26 09:58:51;;;;;;;57.57;39.10;;;1.60;99.90;;;;;;5015318;28;20847;-49
2021/01/26 10:01:19;;;;;;;55.43;35.57;;;1.60;99.90;;;;;;5016591;28;20515;-49
2021/01/26 10:03:47;;;;;;;55.17;38.40;;;1.70;99.90;;;;;;5009251;28;20476;-49
2021/01/26 10:06:19;;;;;;;56.00;38.77;;;1.70;99.90;;;;;;5005801;28;20555;-49
2021/01/26 10:08:47;;;;;;;51.70;36.10;;;1.70;99.90;;;;;;5005891;28;20512;-49
2021/01/26 10:11:18;;;;;;;60.43;40.43;;;1.80;99.90;;;;;;5005427;28;20508;-50
2021/01/26 10:13:47;;;;;;;59.43;40.07;;;1.80;99.90;;;;;;5005303;28;20484;-49
2021/01/26 10:16:34;;;;;;;54.23;38.47;;;1.80;99.90;;;;;;5005632;28;20476;-50
2021/01/26 10:19:12;;;;;;;51.27;36.77;;;1.90;99.90;;;;;;5005874;28;20538;-49
2021/01/26 10:21:41;;;;;;;52.07;37.37;;;1.90;99.90;;;;;;5005471;28;20970;-49
2021/01/26 10:24:23;;;;;;;49.90;36.60;;;1.90;99.90;;;;;;5002270;28;20576;-49
2021/01/26 10:26:51;;;;;;;48.97;33.20;;;1.90;99.90;;;;;;5004461;28;20562;-50
2021/01/26 10:29:35;;;;;;;48.37;35.43;;;1.90;99.90;;;;;;5013466;28;20630;-49
2021/01/26 10:32:02;;;;;;;47.63;35.07;;;1.90;99.90;;;;;;5005253;28;21023;-49
2021/01/26 10:34:45;;;;;;;50.67;33.90;;;1.90;99.90;;;;;;5004395;28;20496;-49
2021/01/26 10:37:31;;;;;;;46.53;33.40;;;1.90;99.90;;;;;;5005285;28;20484;-49
2021/01/26 10:40:32;;;;;;;46.00;31.47;;;1.90;99.90;;;;;;5004078;28;21038;-49
2021/01/26 10:43:07;;;;;;;45.37;31.53;;;2.10;99.90;;;;;;4985390;28;20888;-49
2021/01/26 10:45:40;;;;;;;46.73;32.50;;;2.20;99.90;;;;;;4988267;28;20479;-50
2021/01/26 10:48:14;;;;;;;41.83;30.53;;;2.30;99.90;;;;;;4997981;28;20560;-49
2021/01/26 10:50:42;;;;;;;41.27;29.90;;;2.30;99.90;;;;;;5005502;28;20485;-49
2021/01/26 10:53:10;;;;;;;41.33;31.53;;;2.20;99.90;;;;;;5007074;28;20474;-50
2021/01/26 10:55:38;;;;;;;43.50;30.33;;;2.40;99.90;;;;;;5010517;28;20474;-49
2021/01/26 10:58:05;;;;;;;42.10;29.30;;;2.70;99.90;;;;;;5016098;28;21052;-49
2021/01/26 11:00:32;;;;;;;44.43;32.47;;;2.90;99.90;;;;;;5027452;28;20981;-49
2021/01/26 11:03:00;;;;;;;42.90;29.07;;;3.00;99.90;;;;;;4997666;28;20488;-49
2021/01/26 11:05:28;;;;;;;39.53;28.23;;;3.20;99.90;;;;;;4992699;28;21015;-49
2021/01/26 11:07:58;;;;;;;39.93;28.97;;;3.30;99.90;;;;;;4991429;28;20800;-49
2021/01/26 11:10:27;;;;;;;39.10;28.10;;;3.50;99.90;;;;;;4976303;28;20559;-49
2021/01/26 11:12:54;;;;;;;37.60;25.63;;;3.70;99.90;;;;;;4996375;28;20477;-50
2021/01/26 11:15:26;;;;;;;33.80;25.27;;;3.80;99.90;;;;;;4995737;28;20484;-50
2021/01/26 11:17:54;;;;;;;35.97;25.97;;;3.90;99.90;;;;;;4996999;28;20497;-49
2021/01/26 11:20:21;;;;;;;32.63;24.67;;;3.90;99.90;;;;;;4996913;28;20500;-49
2021/01/26 11:22:49;;;;;;;34.30;25.50;;;4.00;99.90;;;;;;4995764;28;20490;-49
2021/01/26 11:25:19;;;;;;;31.20;23.13;;;4.20;99.90;;;;;;4995482;28;20495;-51
2021/01/26 11:27:47;;;;;;;32.40;23.53;;;4.30;99.90;;;;;;4997576;28;20517;-49
2021/01/26 11:30:16;;;;;;;30.03;22.70;;;4.30;99.90;;;;;;4998992;28;20555;-49
2021/01/26 11:32:44;;;;;;;33.23;24.27;;;4.40;99.90;;;;;;5017769;28;20468;-49
2021/01/26 11:35:15;;;;;;;31.43;23.67;;;4.50;99.90;;;;;;5015882;28;20531;-49
2021/01/26 11:37:43;;;;;;;33.30;23.50;;;4.50;99.90;;;;;;5007278;28;21015;-49
2021/01/26 11:40:12;;;;;;;31.90;23.07;;;4.60;99.90;;;;;;5007375;28;20557;-49
2021/01/26 11:42:39;;;;;;;29.80;21.23;;;4.70;99.90;;;;;;5007315;28;20476;-49
2021/01/26 11:45:13;;;;;;;29.20;21.93;;;4.90;99.90;;;;;;5006522;28;20555;-49
2021/01/26 11:47:40;;;;;;;28.93;21.07;;;5.10;99.90;;;;;;5007840;28;21029;-51
2021/01/26 11:50:12;;;;;;;29.07;20.80;;;5.30;99.90;;;;;;5008832;28;20508;-49
2021/01/26 11:52:41;;;;;;;29.73;22.17;;;5.50;99.90;;;;;;5006437;28;20482;-49
2021/01/26 11:55:12;;;;;;;24.20;19.67;;;5.50;99.90;;;;;;5017408;28;21010;-49
2021/01/26 11:57:42;;;;;;;25.00;19.00;;;5.40;99.90;;;;;;4993877;28;20915;-50
2021/01/26 12:00:14;;;;;;;26.40;19.97;;;5.30;99.90;;;;;;5008429;28;20578;-49
2021/01/26 12:02:42;;;;;;;26.27;18.13;;;5.10;99.90;;;;;;5008196;28;20486;-49
2021/01/26 12:05:11;;;;;;;23.97;17.23;;;5.10;99.90;;;;;;5007758;28;20468;-49
2021/01/26 12:07:40;;;;;;;22.17;17.47;;;5.20;99.90;;;;;;5008467;28;21311;-49
2021/01/26 12:10:09;;;;;;;23.03;18.03;;;5.20;99.90;;;;;;5007838;28;20496;-50
2021/01/26 12:12:37;;;;;;;21.30;17.27;;;5.10;99.90;;;;;;5007303;28;20514;-51
2021/01/26 12:15:08;;;;;;;21.93;17.50;;;5.10;99.90;;;;;;5002541;28;20479;-49
2021/01/26 12:17:37;;;;;;;22.23;17.50;;;5.10;99.90;;;;;;5004787;28;20565;-49
2021/01/26 12:20:07;;;;;;;22.73;17.57;;;5.10;99.90;;;;;;5006731;28;20510;-49
2021/01/26 12:22:35;;;;;;;21.27;16.50;;;5.00;99.90;;;;;;5009273;28;20559;-49
2021/01/26 12:25:04;;;;;;;20.13;14.73;;;5.00;99.90;;;;;;5012199;28;20578;-49
2021/01/26 12:27:42;;;;;;;19.88;14.93;;;5.00;99.90;;;;;;3900981;28;10001380;-49
2021/01/26 12:30:12;;;;;;;23.30;15.23;;;5.00;99.90;;;;;;2410286;28;10002101;-51
2021/01/26 12:32:40;;;;;;;19.43;14.80;;;5.00;99.90;;;;;;5005209;28;20767;-49
2021/01/26 12:35:15;;;;;;;19.90;14.43;;;5.10;99.90;;;;;;5004544;28;20478;-50
2021/01/26 12:37:42;;;;;;;21.23;14.07;;;5.00;99.90;;;;;;5006045;28;21038;-49
2021/01/26 12:40:10;;;;;;;22.37;15.17;;;5.00;99.90;;;;;;5001229;28;20476;-51
2021/01/26 12:42:39;;;;;;;16.93;13.33;;;5.10;99.90;;;;;;5003579;28;20585;-49
2021/01/26 12:45:13;;;;;;;19.37;14.23;;;5.20;99.90;;;;;;5003383;28;20541;-51
2021/01/26 12:47:41;;;;;;;17.37;13.60;;;5.20;99.90;;;;;;5003619;28;20513;-49
2021/01/26 12:50:16;;;;;;;16.57;12.43;;;5.30;99.90;;;;;;5001571;28;21002;-49
2021/01/26 12:52:44;;;;;;;17.87;12.37;;;5.30;99.90;;;;;;4998021;28;20498;-49
2021/01/26 12:55:12;;;;;;;16.00;12.07;;;5.20;99.90;;;;;;4998973;28;20471;-49
2021/01/26 12:57:40;;;;;;;16.17;11.13;;;5.20;99.90;;;;;;5006848;28;20498;-49
2021/01/26 13:00:12;;;;;;;15.23;10.33;;;5.30;99.90;;;;;;5008709;28;20544;-50
2021/01/26 13:02:41;;;;;;;15.10;10.47;;;5.20;99.90;;;;;;4996363;28;20288;-49
2021/01/26 13:05:11;;;;;;;17.13;10.23;;;5.20;99.90;;;;;;5001978;28;21153;-49
2021/01/26 13:07:38;;;;;;;14.57;9.23;;;5.20;99.90;;;;;;4992237;28;20939;-49
2021/01/26 13:10:07;;;;;;;12.63;9.53;;;5.20;99.90;;;;;;5006570;28;20991;-49
2021/01/26 13:12:35;;;;;;;13.20;9.20;;;5.20;99.90;;;;;;5007840;28;20526;-49
2021/01/26 13:15:03;;;;;;;13.50;8.83;;;5.20;99.90;;;;;;5001298;28;20261;-50
2021/01/26 13:17:31;;;;;;;10.37;7.33;;;5.20;99.90;;;;;;5008271;28;20535;-50
2021/01/26 13:19:59;;;;;;;8.43;6.50;;;5.30;99.90;;;;;;5007002;28;20533;-49
2021/01/26 13:22:27;;;;;;;11.87;6.77;;;5.40;99.90;;;;;;5014004;28;20541;-49